sensor_id;sensor_type;location;lat;lon;timestamp;pressure;altitude;pressure_sealevel;temperature;humidity
12358;BME280;6243;51.244;6.774;2023-08-08T00:00:14;115150.97;;;-141.28;35.72
12358;BME280;6243;51.244;6.774;2023-08-08T00:02:40;115150.97;;;-141.28;36.51
12358;BME280;6243;51.244;6.774;2023-08-08T00:05:07;115150.97;;;-141.28;36.66
12358;BME280;6243;51.244;6.774;2023-08-08T00:07:33;115150.97;;;-141.28;36.46
12358;BME280;6243;51.244;6.774;2023-08-08T00:09:58;115150.97;;;-141.28;35.90
12358;BME280;6243;51.244;6.774;2023-08-08T00:12:24;115150.97;;;-141.28;36.17
12358;BME280;6243;51.244;6.774;2023-08-08T00:14:49;115150.97;;;-141.28;35.84
12358;BME280;6243;51.244;6.774;2023-08-08T00:17:15;115150.97;;;-141.28;35.81
12358;BME280;6243;51.244;6.774;2023-08-08T00:19:40;115150.97;;;-141.28;36.31
12358;BME280;6243;51.244;6.774;2023-08-08T00:22:07;115150.97;;;-141.28;36.71
12358;BME280;6243;51.244;6.774;2023-08-08T00:24:33;115150.97;;;-141.28;37.19
12358;BME280;6243;51.244;6.774;2023-08-08T00:26:59;115150.97;;;-141.28;36.82
12358;BME280;6243;51.244;6.774;2023-08-08T00:29:24;115150.97;;;-141.28;36.60
12358;BME280;6243;51.244;6.774;2023-08-08T00:31:50;115150.97;;;-141.28;37.31
12358;BME280;6243;51.244;6.774;2023-08-08T00:34:15;115150.97;;;-141.28;36.99
12358;BME280;6243;51.244;6.774;2023-08-08T00:36:41;115150.97;;;-141.28;36.92
12358;BME280;6243;51.244;6.774;2023-08-08T00:39:08;115150.97;;;-141.28;37.31
12358;BME280;6243;51.244;6.774;2023-08-08T00:41:33;115150.97;;;-141.28;36.72
12358;BME280;6243;51.244;6.774;2023-08-08T00:43:59;115150.97;;;-141.28;37.29
12358;BME280;6243;51.244;6.774;2023-08-08T00:46:24;115150.97;;;-141.28;37.19
12358;BME280;6243;51.244;6.774;2023-08-08T00:48:51;115150.97;;;-141.28;36.48
12358;BME280;6243;51.244;6.774;2023-08-08T00:51:16;115150.97;;;-141.28;36.23
12358;BME280;6243;51.244;6.774;2023-08-08T00:53:44;115150.97;;;-141.28;36.81
12358;BME280;6243;51.244;6.774;2023-08-08T00:56:11;115150.97;;;-141.28;36.90
12358;BME280;6243;51.244;6.774;2023-08-08T00:58:37;115150.97;;;-141.28;36.68
12358;BME280;6243;51.244;6.774;2023-08-08T01:01:03;115150.97;;;-141.28;35.96
12358;BME280;6243;51.244;6.774;2023-08-08T01:03:28;115150.97;;;-141.28;36.22
12358;BME280;6243;51.244;6.774;2023-08-08T01:06:10;115150.97;;;-141.28;36.26
12358;BME280;6243;51.244;6.774;2023-08-08T01:08:44;115150.97;;;-141.28;36.74
12358;BME280;6243;51.244;6.774;2023-08-08T01:11:13;115150.97;;;-141.28;37.31
12358;BME280;6243;51.244;6.774;2023-08-08T01:13:40;115150.97;;;-141.28;36.23
12358;BME280;6243;51.244;6.774;2023-08-08T01:16:06;115150.97;;;-141.28;37.02
12358;BME280;6243;51.244;6.774;2023-08-08T01:18:33;115150.97;;;-141.28;36.43
12358;BME280;6243;51.244;6.774;2023-08-08T01:21:01;115150.97;;;-141.28;36.30
12358;BME280;6243;51.244;6.774;2023-08-08T01:23:30;115150.97;;;-141.28;37.29
12358;BME280;6243;51.244;6.774;2023-08-08T01:26:00;115150.97;;;-141.28;37.73
12358;BME280;6243;51.244;6.774;2023-08-08T01:28:26;115150.97;;;-141.28;37.54
12358;BME280;6243;51.244;6.774;2023-08-08T01:30:51;115150.97;;;-141.28;37.54
12358;BME280;6243;51.244;6.774;2023-08-08T01:33:17;115150.97;;;-141.28;37.55
12358;BME280;6243;51.244;6.774;2023-08-08T01:35:48;115150.97;;;-141.28;37.44
12358;BME280;6243;51.244;6.774;2023-08-08T01:38:19;115150.97;;;-141.28;37.48
12358;BME280;6243;51.244;6.774;2023-08-08T01:40:46;115150.97;;;-141.28;37.14
12358;BME280;6243;51.244;6.774;2023-08-08T01:43:15;115150.97;;;-141.28;37.19
12358;BME280;6243;51.244;6.774;2023-08-08T01:45:41;115150.97;;;-141.28;37.51
12358;BME280;6243;51.244;6.774;2023-08-08T01:48:08;115150.97;;;-141.28;37.30
12358;BME280;6243;51.244;6.774;2023-08-08T01:50:34;115150.97;;;-141.28;37.36
12358;BME280;6243;51.244;6.774;2023-08-08T01:53:00;115150.97;;;-141.28;37.05
12358;BME280;6243;51.244;6.774;2023-08-08T01:55:26;115150.97;;;-141.28;37.17
12358;BME280;6243;51.244;6.774;2023-08-08T01:57:51;115150.97;;;-141.28;37.16
12358;BME280;6243;51.244;6.774;2023-08-08T02:00:18;115150.97;;;-141.28;37.18
12358;BME280;6243;51.244;6.774;2023-08-08T02:02:44;115150.97;;;-141.28;37.14
12358;BME280;6243;51.244;6.774;2023-08-08T02:05:09;115150.97;;;-141.28;36.99
12358;BME280;6243;51.244;6.774;2023-08-08T02:07:35;115150.97;;;-141.28;36.86
12358;BME280;6243;51.244;6.774;2023-08-08T02:10:00;115150.97;;;-141.28;36.98
12358;BME280;6243;51.244;6.774;2023-08-08T02:12:26;115150.97;;;-141.28;36.91
12358;BME280;6243;51.244;6.774;2023-08-08T02:14:52;115150.97;;;-141.28;36.86
12358;BME280;6243;51.244;6.774;2023-08-08T02:17:18;115150.97;;;-141.28;36.88
12358;BME280;6243;51.244;6.774;2023-08-08T02:19:44;115150.97;;;-141.28;37.62
12358;BME280;6243;51.244;6.774;2023-08-08T02:22:09;115150.97;;;-141.28;37.14
12358;BME280;6243;51.244;6.774;2023-08-08T02:24:35;115150.97;;;-141.28;36.95
12358;BME280;6243;51.244;6.774;2023-08-08T02:27:00;115150.97;;;-141.28;37.30
12358;BME280;6243;51.244;6.774;2023-08-08T02:29:26;115150.97;;;-141.28;37.14
12358;BME280;6243;51.244;6.774;2023-08-08T02:31:51;115150.97;;;-141.28;36.91
12358;BME280;6243;51.244;6.774;2023-08-08T02:34:18;115150.97;;;-141.28;37.47
12358;BME280;6243;51.244;6.774;2023-08-08T02:36:44;115150.97;;;-141.28;37.16
12358;BME280;6243;51.244;6.774;2023-08-08T02:39:09;115150.97;;;-141.28;37.65
12358;BME280;6243;51.244;6.774;2023-08-08T02:41:35;115150.97;;;-141.28;37.67
12358;BME280;6243;51.244;6.774;2023-08-08T02:44:00;115150.97;;;-141.28;37.63
12358;BME280;6243;51.244;6.774;2023-08-08T02:46:26;115150.97;;;-141.28;37.92
12358;BME280;6243;51.244;6.774;2023-08-08T02:48:51;115150.97;;;-141.28;37.75
12358;BME280;6243;51.244;6.774;2023-08-08T02:51:18;115150.97;;;-141.28;37.62
12358;BME280;6243;51.244;6.774;2023-08-08T02:53:44;115150.97;;;-141.28;37.46
12358;BME280;6243;51.244;6.774;2023-08-08T02:56:09;115150.97;;;-141.28;37.65
12358;BME280;6243;51.244;6.774;2023-08-08T02:58:35;115150.97;;;-141.28;37.67
12358;BME280;6243;51.244;6.774;2023-08-08T03:01:00;115150.97;;;-141.28;38.18
12358;BME280;6243;51.244;6.774;2023-08-08T03:03:26;115150.97;;;-141.28;37.90
12358;BME280;6243;51.244;6.774;2023-08-08T03:05:51;115150.97;;;-141.28;37.76
12358;BME280;6243;51.244;6.774;2023-08-08T03:08:18;115150.97;;;-141.28;37.54
12358;BME280;6243;51.244;6.774;2023-08-08T03:10:44;115150.97;;;-141.28;37.04
12358;BME280;6243;51.244;6.774;2023-08-08T03:13:09;115150.97;;;-141.28;37.52
12358;BME280;6243;51.244;6.774;2023-08-08T03:15:35;115150.97;;;-141.28;37.00
12358;BME280;6243;51.244;6.774;2023-08-08T03:18:00;115150.97;;;-141.28;37.19
12358;BME280;6243;51.244;6.774;2023-08-08T03:20:26;115150.97;;;-141.28;37.16
12358;BME280;6243;51.244;6.774;2023-08-08T03:22:51;115150.97;;;-141.28;37.20
12358;BME280;6243;51.244;6.774;2023-08-08T03:25:18;115150.97;;;-141.28;37.22
12358;BME280;6243;51.244;6.774;2023-08-08T03:27:44;115150.97;;;-141.28;36.60
12358;BME280;6243;51.244;6.774;2023-08-08T03:30:10;115150.97;;;-141.28;36.53
12358;BME280;6243;51.244;6.774;2023-08-08T03:32:36;115150.97;;;-141.28;36.83
12358;BME280;6243;51.244;6.774;2023-08-08T03:35:01;115150.97;;;-141.28;36.60
12358;BME280;6243;51.244;6.774;2023-08-08T03:37:27;115150.97;;;-141.28;36.91
12358;BME280;6243;51.244;6.774;2023-08-08T03:39:52;115150.97;;;-141.28;36.82
12358;BME280;6243;51.244;6.774;2023-08-08T03:42:19;115150.97;;;-141.28;37.32
12358;BME280;6243;51.244;6.774;2023-08-08T03:44:45;115150.97;;;-141.28;37.20
12358;BME280;6243;51.244;6.774;2023-08-08T03:47:10;115150.97;;;-141.28;37.90
12358;BME280;6243;51.244;6.774;2023-08-08T03:49:36;115150.97;;;-141.28;37.59
12358;BME280;6243;51.244;6.774;2023-08-08T03:52:01;115150.97;;;-141.28;38.08
12358;BME280;6243;51.244;6.774;2023-08-08T03:54:27;115150.97;;;-141.28;38.61
12358;BME280;6243;51.244;6.774;2023-08-08T03:56:52;115150.97;;;-141.28;37.12
12358;BME280;6243;51.244;6.774;2023-08-08T03:59:19;115150.97;;;-141.28;38.77
12358;BME280;6243;51.244;6.774;2023-08-08T04:01:45;115150.97;;;-141.28;38.51
12358;BME280;6243;51.244;6.774;2023-08-08T04:04:10;115150.97;;;-141.28;38.57
12358;BME280;6243;51.244;6.774;2023-08-08T04:06:36;115150.97;;;-141.28;37.53
12358;BME280;6243;51.244;6.774;2023-08-08T04:09:01;115150.97;;;-141.28;37.52
12358;BME280;6243;51.244;6.774;2023-08-08T04:11:27;115150.97;;;-141.28;37.46
12358;BME280;6243;51.244;6.774;2023-08-08T04:13:52;115150.97;;;-141.28;38.23
12358;BME280;6243;51.244;6.774;2023-08-08T04:16:19;115150.97;;;-141.28;38.43
12358;BME280;6243;51.244;6.774;2023-08-08T04:18:45;115150.97;;;-141.28;38.79
12358;BME280;6243;51.244;6.774;2023-08-08T04:21:10;115150.97;;;-141.28;38.81
12358;BME280;6243;51.244;6.774;2023-08-08T04:23:36;115150.97;;;-141.28;38.84
12358;BME280;6243;51.244;6.774;2023-08-08T04:26:01;115150.97;;;-141.28;38.65
12358;BME280;6243;51.244;6.774;2023-08-08T04:28:27;115150.97;;;-141.28;39.39
12358;BME280;6243;51.244;6.774;2023-08-08T04:30:52;115150.97;;;-141.28;39.03
12358;BME280;6243;51.244;6.774;2023-08-08T04:33:19;115150.97;;;-141.28;37.81
12358;BME280;6243;51.244;6.774;2023-08-08T04:35:44;115150.97;;;-141.28;39.09
12358;BME280;6243;51.244;6.774;2023-08-08T04:38:10;115150.97;;;-141.28;38.85
12358;BME280;6243;51.244;6.774;2023-08-08T04:40:35;115150.97;;;-141.28;39.18
12358;BME280;6243;51.244;6.774;2023-08-08T04:43:01;115150.97;;;-141.28;39.26
12358;BME280;6243;51.244;6.774;2023-08-08T04:45:26;115150.97;;;-141.28;39.63
12358;BME280;6243;51.244;6.774;2023-08-08T04:47:52;115150.97;;;-141.28;39.10
12358;BME280;6243;51.244;6.774;2023-08-08T04:50:19;115150.97;;;-141.28;40.51
12358;BME280;6243;51.244;6.774;2023-08-08T04:52:44;115150.97;;;-141.28;40.11
12358;BME280;6243;51.244;6.774;2023-08-08T04:55:10;115150.97;;;-141.28;39.80
12358;BME280;6243;51.244;6.774;2023-08-08T04:57:35;115150.97;;;-141.28;39.72
12358;BME280;6243;51.244;6.774;2023-08-08T05:00:01;115150.97;;;-141.28;39.37
12358;BME280;6243;51.244;6.774;2023-08-08T05:02:26;115150.97;;;-141.28;39.56
12358;BME280;6243;51.244;6.774;2023-08-08T05:04:52;115150.97;;;-141.28;39.77
12358;BME280;6243;51.244;6.774;2023-08-08T05:07:19;115150.97;;;-141.28;39.57
12358;BME280;6243;51.244;6.774;2023-08-08T05:09:44;115150.97;;;-141.28;39.07
12358;BME280;6243;51.244;6.774;2023-08-08T05:12:10;115150.97;;;-141.28;39.14
12358;BME280;6243;51.244;6.774;2023-08-08T05:14:35;115150.97;;;-141.28;39.34
12358;BME280;6243;51.244;6.774;2023-08-08T05:17:01;115150.97;;;-141.28;40.12
12358;BME280;6243;51.244;6.774;2023-08-08T05:19:27;115150.97;;;-141.28;39.79
12358;BME280;6243;51.244;6.774;2023-08-08T05:21:53;115150.97;;;-141.28;40.55
12358;BME280;6243;51.244;6.774;2023-08-08T05:24:20;115150.97;;;-141.28;40.64
12358;BME280;6243;51.244;6.774;2023-08-08T05:26:45;115150.97;;;-141.28;40.88
12358;BME280;6243;51.244;6.774;2023-08-08T05:29:10;115150.97;;;-141.28;41.59
12358;BME280;6243;51.244;6.774;2023-08-08T05:31:36;115150.97;;;-141.28;40.14
12358;BME280;6243;51.244;6.774;2023-08-08T05:34:01;115150.97;;;-141.28;40.03
12358;BME280;6243;51.244;6.774;2023-08-08T05:36:27;115150.97;;;-141.28;40.90
12358;BME280;6243;51.244;6.774;2023-08-08T05:38:52;115150.97;;;-141.28;40.74
12358;BME280;6243;51.244;6.774;2023-08-08T05:41:19;115150.97;;;-141.28;40.88
12358;BME280;6243;51.244;6.774;2023-08-08T05:43:45;115150.97;;;-141.28;40.92
12358;BME280;6243;51.244;6.774;2023-08-08T05:46:10;115150.97;;;-141.28;40.39
12358;BME280;6243;51.244;6.774;2023-08-08T05:48:36;115150.97;;;-141.28;40.10
12358;BME280;6243;51.244;6.774;2023-08-08T05:51:01;115150.97;;;-141.28;40.87
12358;BME280;6243;51.244;6.774;2023-08-08T05:53:27;115150.97;;;-141.28;40.57
12358;BME280;6243;51.244;6.774;2023-08-08T05:55:52;115150.97;;;-141.28;40.52
12358;BME280;6243;51.244;6.774;2023-08-08T05:58:19;115150.97;;;-141.28;40.53
12358;BME280;6243;51.244;6.774;2023-08-08T06:00:44;115150.97;;;-141.28;40.81
12358;BME280;6243;51.244;6.774;2023-08-08T06:03:10;115150.97;;;-141.28;39.97
12358;BME280;6243;51.244;6.774;2023-08-08T06:05:35;115150.97;;;-141.28;40.46
12358;BME280;6243;51.244;6.774;2023-08-08T06:08:01;115150.97;;;-141.28;41.40
12358;BME280;6243;51.244;6.774;2023-08-08T06:10:26;115150.97;;;-141.28;41.25
12358;BME280;6243;51.244;6.774;2023-08-08T06:12:52;115150.97;;;-141.28;40.98
12358;BME280;6243;51.244;6.774;2023-08-08T06:15:19;115150.97;;;-141.28;40.94
12358;BME280;6243;51.244;6.774;2023-08-08T06:17:45;115150.97;;;-141.28;40.97
12358;BME280;6243;51.244;6.774;2023-08-08T06:20:10;115150.97;;;-141.28;41.06
12358;BME280;6243;51.244;6.774;2023-08-08T06:22:36;115150.97;;;-141.28;39.94
12358;BME280;6243;51.244;6.774;2023-08-08T06:25:02;115150.97;;;-141.28;39.95
12358;BME280;6243;51.244;6.774;2023-08-08T06:27:27;115150.97;;;-141.28;39.70
12358;BME280;6243;51.244;6.774;2023-08-08T06:29:53;115150.97;;;-141.28;40.66
12358;BME280;6243;51.244;6.774;2023-08-08T06:32:20;115150.97;;;-141.28;40.43
12358;BME280;6243;51.244;6.774;2023-08-08T06:34:45;115150.97;;;-141.28;39.84
12358;BME280;6243;51.244;6.774;2023-08-08T06:37:11;115150.97;;;-141.28;39.74
12358;BME280;6243;51.244;6.774;2023-08-08T06:39:36;115150.97;;;-141.28;40.05
12358;BME280;6243;51.244;6.774;2023-08-08T06:42:02;115150.97;;;-141.28;40.08
12358;BME280;6243;51.244;6.774;2023-08-08T06:44:28;115150.97;;;-141.28;39.79
12358;BME280;6243;51.244;6.774;2023-08-08T06:46:53;115150.97;;;-141.28;39.67
12358;BME280;6243;51.244;6.774;2023-08-08T06:49:20;115150.97;;;-141.28;40.17
12358;BME280;6243;51.244;6.774;2023-08-08T06:51:46;115150.97;;;-141.28;39.83
12358;BME280;6243;51.244;6.774;2023-08-08T06:54:11;115150.97;;;-141.28;39.65
12358;BME280;6243;51.244;6.774;2023-08-08T06:56:37;115150.97;;;-141.28;39.77
12358;BME280;6243;51.244;6.774;2023-08-08T06:59:02;115150.97;;;-141.28;39.53
12358;BME280;6243;51.244;6.774;2023-08-08T07:01:28;115150.97;;;-141.28;40.41
12358;BME280;6243;51.244;6.774;2023-08-08T07:03:53;115150.97;;;-141.28;40.69
12358;BME280;6243;51.244;6.774;2023-08-08T07:06:20;115150.97;;;-141.28;40.21
12358;BME280;6243;51.244;6.774;2023-08-08T07:08:46;115150.97;;;-141.28;40.06
12358;BME280;6243;51.244;6.774;2023-08-08T07:11:11;115150.97;;;-141.28;40.10
12358;BME280;6243;51.244;6.774;2023-08-08T07:13:37;115150.97;;;-141.28;39.52
12358;BME280;6243;51.244;6.774;2023-08-08T07:16:02;115150.97;;;-141.28;40.67
12358;BME280;6243;51.244;6.774;2023-08-08T07:18:28;115150.97;;;-141.28;40.21
12358;BME280;6243;51.244;6.774;2023-08-08T07:20:53;115150.97;;;-141.28;35.13
12358;BME280;6243;51.244;6.774;2023-08-08T07:23:20;115150.97;;;-141.28;34.44
12358;BME280;6243;51.244;6.774;2023-08-08T07:25:46;115150.97;;;-141.28;38.61
12358;BME280;6243;51.244;6.774;2023-08-08T07:28:11;115150.97;;;-141.28;40.60
12358;BME280;6243;51.244;6.774;2023-08-08T07:30:37;115150.97;;;-141.28;39.40
12358;BME280;6243;51.244;6.774;2023-08-08T07:33:02;115150.97;;;-141.28;39.85
12358;BME280;6243;51.244;6.774;2023-08-08T07:35:28;115150.97;;;-141.28;38.83
12358;BME280;6243;51.244;6.774;2023-08-08T07:37:53;115150.97;;;-141.28;39.61
12358;BME280;6243;51.244;6.774;2023-08-08T07:40:20;115150.97;;;-141.28;39.08
12358;BME280;6243;51.244;6.774;2023-08-08T07:42:47;115150.97;;;-141.28;38.68
12358;BME280;6243;51.244;6.774;2023-08-08T07:45:12;115150.97;;;-141.28;38.57
12358;BME280;6243;51.244;6.774;2023-08-08T07:47:38;115150.97;;;-141.28;38.24
12358;BME280;6243;51.244;6.774;2023-08-08T07:50:04;115150.97;;;-141.28;38.03
12358;BME280;6243;51.244;6.774;2023-08-08T07:52:30;115150.97;;;-141.28;37.75
12358;BME280;6243;51.244;6.774;2023-08-08T07:54:56;115150.97;;;-141.28;37.49
12358;BME280;6243;51.244;6.774;2023-08-08T07:57:23;115150.97;;;-141.28;37.41
12358;BME280;6243;51.244;6.774;2023-08-08T07:59:49;115150.97;;;-141.28;35.95
12358;BME280;6243;51.244;6.774;2023-08-08T08:02:14;115150.97;;;-141.28;36.92
12358;BME280;6243;51.244;6.774;2023-08-08T08:04:40;115150.97;;;-141.28;37.83
12358;BME280;6243;51.244;6.774;2023-08-08T08:07:05;115150.97;;;-141.28;37.33
12358;BME280;6243;51.244;6.774;2023-08-08T08:09:31;115150.97;;;-141.28;36.86
12358;BME280;6243;51.244;6.774;2023-08-08T08:11:56;115150.97;;;-141.28;37.33
12358;BME280;6243;51.244;6.774;2023-08-08T08:14:23;115150.97;;;-141.28;36.45
12358;BME280;6243;51.244;6.774;2023-08-08T08:16:49;115150.97;;;-141.28;37.51
12358;BME280;6243;51.244;6.774;2023-08-08T08:19:14;115150.97;;;-141.28;37.09
12358;BME280;6243;51.244;6.774;2023-08-08T08:21:40;115150.97;;;-141.28;38.35
12358;BME280;6243;51.244;6.774;2023-08-08T08:24:06;115150.97;;;-141.28;37.29
12358;BME280;6243;51.244;6.774;2023-08-08T08:26:31;115150.97;;;-141.28;36.99
12358;BME280;6243;51.244;6.774;2023-08-08T08:28:57;115150.97;;;-141.28;36.54
12358;BME280;6243;51.244;6.774;2023-08-08T08:31:24;115150.97;;;-141.28;37.34
12358;BME280;6243;51.244;6.774;2023-08-08T08:33:49;115150.97;;;-141.28;37.66
12358;BME280;6243;51.244;6.774;2023-08-08T08:36:15;115150.97;;;-141.28;37.39
12358;BME280;6243;51.244;6.774;2023-08-08T08:38:40;115150.97;;;-141.28;37.64
12358;BME280;6243;51.244;6.774;2023-08-08T08:41:06;115150.97;;;-141.28;37.24
12358;BME280;6243;51.244;6.774;2023-08-08T08:43:34;115150.97;;;-141.28;37.06
12358;BME280;6243;51.244;6.774;2023-08-08T08:46:00;115150.97;;;-141.28;36.64
12358;BME280;6243;51.244;6.774;2023-08-08T08:48:27;115150.97;;;-141.28;36.66
12358;BME280;6243;51.244;6.774;2023-08-08T08:50:53;115150.97;;;-141.28;36.61
12358;BME280;6243;51.244;6.774;2023-08-08T08:53:19;115150.97;;;-141.28;36.54
12358;BME280;6243;51.244;6.774;2023-08-08T08:55:46;115150.97;;;-141.28;36.26
12358;BME280;6243;51.244;6.774;2023-08-08T08:58:14;115150.97;;;-141.28;35.54
12358;BME280;6243;51.244;6.774;2023-08-08T09:00:40;115150.97;;;-141.28;35.36
12358;BME280;6243;51.244;6.774;2023-08-08T09:03:07;115150.97;;;-141.28;36.39
12358;BME280;6243;51.244;6.774;2023-08-08T09:05:34;115150.97;;;-141.28;35.71
12358;BME280;6243;51.244;6.774;2023-08-08T09:08:00;115150.97;;;-141.28;35.51
12358;BME280;6243;51.244;6.774;2023-08-08T09:10:27;115150.97;;;-141.28;36.57
12358;BME280;6243;51.244;6.774;2023-08-08T09:12:55;115150.97;;;-141.28;36.39
12358;BME280;6243;51.244;6.774;2023-08-08T09:15:20;115150.97;;;-141.28;35.64
12358;BME280;6243;51.244;6.774;2023-08-08T09:17:46;115150.97;;;-141.28;36.20
12358;BME280;6243;51.244;6.774;2023-08-08T09:20:12;115150.97;;;-141.28;36.29
12358;BME280;6243;51.244;6.774;2023-08-08T09:22:39;115150.97;;;-141.28;36.94
12358;BME280;6243;51.244;6.774;2023-08-08T09:25:06;115150.97;;;-141.28;36.02
12358;BME280;6243;51.244;6.774;2023-08-08T09:27:32;115150.97;;;-141.28;35.76
12358;BME280;6243;51.244;6.774;2023-08-08T09:29:57;115150.97;;;-141.28;35.64
12358;BME280;6243;51.244;6.774;2023-08-08T09:32:28;115150.97;;;-141.28;35.93
12358;BME280;6243;51.244;6.774;2023-08-08T09:34:55;115150.97;;;-141.28;35.70
12358;BME280;6243;51.244;6.774;2023-08-08T09:37:21;115150.97;;;-141.28;36.30
12358;BME280;6243;51.244;6.774;2023-08-08T09:39:55;115150.97;;;-141.28;35.27
12358;BME280;6243;51.244;6.774;2023-08-08T09:42:21;115150.97;;;-141.28;35.31
12358;BME280;6243;51.244;6.774;2023-08-08T09:44:46;115150.97;;;-141.28;34.80
12358;BME280;6243;51.244;6.774;2023-08-08T09:47:12;115150.97;;;-141.28;34.80
12358;BME280;6243;51.244;6.774;2023-08-08T09:49:38;115150.97;;;-141.28;34.97
12358;BME280;6243;51.244;6.774;2023-08-08T09:52:05;115150.97;;;-141.28;35.38
12358;BME280;6243;51.244;6.774;2023-08-08T09:54:31;115150.97;;;-141.28;35.15
12358;BME280;6243;51.244;6.774;2023-08-08T09:56:58;115150.97;;;-141.28;34.48
12358;BME280;6243;51.244;6.774;2023-08-08T09:59:25;115150.97;;;-141.28;35.10
12358;BME280;6243;51.244;6.774;2023-08-08T10:01:50;115150.97;;;-141.28;34.61
12358;BME280;6243;51.244;6.774;2023-08-08T10:04:17;115150.97;;;-141.28;35.32
12358;BME280;6243;51.244;6.774;2023-08-08T10:06:42;115150.97;;;-141.28;35.07
12358;BME280;6243;51.244;6.774;2023-08-08T10:09:08;115150.97;;;-141.28;35.33
12358;BME280;6243;51.244;6.774;2023-08-08T10:11:34;115150.97;;;-141.28;34.94
12358;BME280;6243;51.244;6.774;2023-08-08T10:14:03;115150.97;;;-141.28;34.44
12358;BME280;6243;51.244;6.774;2023-08-08T10:16:31;115150.97;;;-141.28;35.07
12358;BME280;6243;51.244;6.774;2023-08-08T10:18:59;115150.97;;;-141.28;34.77
12358;BME280;6243;51.244;6.774;2023-08-08T10:21:25;115150.97;;;-141.28;34.87
12358;BME280;6243;51.244;6.774;2023-08-08T10:24:01;115150.97;;;-141.28;34.58
12358;BME280;6243;51.244;6.774;2023-08-08T10:26:27;115150.97;;;-141.28;34.57
12358;BME280;6243;51.244;6.774;2023-08-08T10:28:53;115150.97;;;-141.28;33.99
12358;BME280;6243;51.244;6.774;2023-08-08T10:31:22;115150.97;;;-141.28;34.19
12358;BME280;6243;51.244;6.774;2023-08-08T10:33:47;115150.97;;;-141.28;35.06
12358;BME280;6243;51.244;6.774;2023-08-08T10:36:13;115150.97;;;-141.28;35.26
12358;BME280;6243;51.244;6.774;2023-08-08T10:38:40;115150.97;;;-141.28;35.00
12358;BME280;6243;51.244;6.774;2023-08-08T10:41:09;115150.97;;;-141.28;35.17
12358;BME280;6243;51.244;6.774;2023-08-08T10:43:35;115150.97;;;-141.28;35.36
12358;BME280;6243;51.244;6.774;2023-08-08T10:46:02;115150.97;;;-141.28;35.30
12358;BME280;6243;51.244;6.774;2023-08-08T10:48:29;115150.97;;;-141.28;34.59
12358;BME280;6243;51.244;6.774;2023-08-08T10:50:55;115150.97;;;-141.28;35.04
12358;BME280;6243;51.244;6.774;2023-08-08T10:53:23;115150.97;;;-141.28;35.18
12358;BME280;6243;51.244;6.774;2023-08-08T10:55:57;115150.97;;;-141.28;35.38
12358;BME280;6243;51.244;6.774;2023-08-08T10:58:34;115150.97;;;-141.28;35.33
12358;BME280;6243;51.244;6.774;2023-08-08T11:01:00;115150.97;;;-141.28;35.33
12358;BME280;6243;51.244;6.774;2023-08-08T11:03:26;115150.97;;;-141.28;36.47
12358;BME280;6243;51.244;6.774;2023-08-08T11:05:53;115150.97;;;-141.28;35.36
12358;BME280;6243;51.244;6.774;2023-08-08T11:08:19;115150.97;;;-141.28;34.96
12358;BME280;6243;51.244;6.774;2023-08-08T11:10:45;115150.97;;;-141.28;34.98
12358;BME280;6243;51.244;6.774;2023-08-08T11:13:10;115150.97;;;-141.28;35.10
12358;BME280;6243;51.244;6.774;2023-08-08T11:15:37;115150.97;;;-141.28;34.62
12358;BME280;6243;51.244;6.774;2023-08-08T11:18:03;115150.97;;;-141.28;34.88
12358;BME280;6243;51.244;6.774;2023-08-08T11:20:30;115150.97;;;-141.28;34.45
12358;BME280;6243;51.244;6.774;2023-08-08T11:22:57;115150.97;;;-141.28;34.52
12358;BME280;6243;51.244;6.774;2023-08-08T11:25:25;115150.97;;;-141.28;34.68
12358;BME280;6243;51.244;6.774;2023-08-08T11:27:52;115150.97;;;-141.28;34.88
12358;BME280;6243;51.244;6.774;2023-08-08T11:30:18;115150.97;;;-141.28;34.77
12358;BME280;6243;51.244;6.774;2023-08-08T11:32:45;115150.97;;;-141.28;34.37
12358;BME280;6243;51.244;6.774;2023-08-08T11:35:11;115150.97;;;-141.28;34.29
12358;BME280;6243;51.244;6.774;2023-08-08T11:37:37;115150.97;;;-141.28;34.71
12358;BME280;6243;51.244;6.774;2023-08-08T11:40:06;115150.97;;;-141.28;34.37
12358;BME280;6243;51.244;6.774;2023-08-08T11:42:32;115150.97;;;-141.28;34.26
12358;BME280;6243;51.244;6.774;2023-08-08T11:44:57;115150.97;;;-141.28;34.05
12358;BME280;6243;51.244;6.774;2023-08-08T11:47:24;115150.97;;;-141.28;33.96
12358;BME280;6243;51.244;6.774;2023-08-08T11:49:51;115150.97;;;-141.28;33.77
12358;BME280;6243;51.244;6.774;2023-08-08T11:52:17;115150.97;;;-141.28;34.42
12358;BME280;6243;51.244;6.774;2023-08-08T11:54:43;115150.97;;;-141.28;34.15
12358;BME280;6243;51.244;6.774;2023-08-08T11:57:10;115150.97;;;-141.28;34.11
12358;BME280;6243;51.244;6.774;2023-08-08T11:59:35;115150.97;;;-141.28;34.27
12358;BME280;6243;51.244;6.774;2023-08-08T12:02:01;115150.97;;;-141.28;34.47
12358;BME280;6243;51.244;6.774;2023-08-08T12:04:27;115150.97;;;-141.28;33.91
12358;BME280;6243;51.244;6.774;2023-08-08T12:07:00;115150.97;;;-141.28;34.26
12358;BME280;6243;51.244;6.774;2023-08-08T12:09:28;115150.97;;;-141.28;34.97
12358;BME280;6243;51.244;6.774;2023-08-08T12:11:54;115150.97;;;-141.28;35.46
12358;BME280;6243;51.244;6.774;2023-08-08T12:14:21;115150.97;;;-141.28;34.85
12358;BME280;6243;51.244;6.774;2023-08-08T12:16:46;115150.97;;;-141.28;34.54
12358;BME280;6243;51.244;6.774;2023-08-08T12:19:12;115150.97;;;-141.28;34.42
12358;BME280;6243;51.244;6.774;2023-08-08T12:21:37;115150.97;;;-141.28;34.79
12358;BME280;6243;51.244;6.774;2023-08-08T12:24:03;115150.97;;;-141.28;34.65
12358;BME280;6243;51.244;6.774;2023-08-08T12:26:29;115150.97;;;-141.28;34.58
12358;BME280;6243;51.244;6.774;2023-08-08T12:28:54;115150.97;;;-141.28;34.06
12358;BME280;6243;51.244;6.774;2023-08-08T12:31:21;115150.97;;;-141.28;34.85
12358;BME280;6243;51.244;6.774;2023-08-08T12:33:46;115150.97;;;-141.28;34.05